Time;durP1;ratioP1;P1;durP2;ratioP2;P2;SDS_P1;SDS_P2;PMS_P1;PMS_P2;Temp;Humidity;BMP_temperature;BMP_pressure;BME280_temperature;BME280_humidity;BME280_pressure;Samples;Min_cycle;Max_cycle;Signal;HPM_P1;HPM_P2
2023/04/20 00:00:08;;;;;;;6.88;3.60;;;10.90;42.40;;;10.14;34.02;101044.09;5024018;28;20045;-72
2023/04/20 00:02:40;;;;;;;8.38;4.03;;;10.80;42.20;;;10.15;34.38;101043.06;5023483;28;20073;-76
2023/04/20 00:05:10;;;;;;;10.40;3.90;;;10.80;42.70;;;10.19;34.58;101039.00;5025254;28;20775;-72
2023/04/20 00:07:40;;;;;;;7.97;4.00;;;10.80;43.10;;;10.17;34.43;101031.22;5025563;28;20128;-73
2023/04/20 00:10:09;;;;;;;8.23;3.33;;;10.80;42.80;;;10.20;34.44;101032.63;5026065;28;20045;-73
2023/04/20 00:12:37;;;;;;;8.00;3.70;;;10.80;43.00;;;10.19;34.52;101026.50;5026971;28;20069;-74
2023/04/20 00:15:05;;;;;;;10.63;3.90;;;10.80;42.80;;;10.22;34.67;101023.44;5027422;28;20132;-72
2023/04/20 00:17:32;;;;;;;10.35;3.78;;;10.80;43.30;;;10.19;34.33;101013.16;5039810;28;20144;-75
2023/04/20 00:20:00;;;;;;;7.47;3.88;;;10.80;42.70;;;10.17;34.36;101017.88;5025145;28;20068;-74
2023/04/20 00:22:29;;;;;;;8.20;4.10;;;10.80;42.80;;;10.17;34.61;101009.88;5027616;28;20073;-75
2023/04/20 00:24:56;;;;;;;7.18;4.05;;;10.70;43.20;;;10.19;35.03;100999.00;5026793;28;20049;-73
2023/04/20 00:27:24;;;;;;;11.05;3.63;;;10.70;43.60;;;10.19;34.66;100999.00;5024066;28;20041;-72
2023/04/20 00:29:51;;;;;;;10.15;3.97;;;10.80;43.30;;;10.15;34.65;100992.41;5026010;28;20124;-72
2023/04/20 00:32:18;;;;;;;11.50;4.10;;;10.70;43.10;;;10.17;34.62;100982.41;5023536;28;20087;-74
2023/04/20 00:34:48;;;;;;;10.60;3.88;;;10.70;43.40;;;10.20;34.84;100990.84;5023984;28;20049;-74
2023/04/20 00:37:17;;;;;;;8.45;3.83;;;10.80;43.50;;;10.18;34.89;100973.38;5024424;28;20053;-72
2023/04/20 00:39:45;;;;;;;10.60;3.70;;;10.80;43.50;;;10.16;34.55;100970.09;5024367;28;20069;-71
2023/04/20 00:42:12;;;;;;;11.50;4.00;;;10.70;43.00;;;10.17;34.86;100972.56;5021128;28;20064;-71
2023/04/20 00:44:40;;;;;;;6.80;3.70;;;10.80;43.30;;;10.15;34.91;100963.97;5042343;28;20064;-71
2023/04/20 00:47:07;;;;;;;7.63;3.90;;;10.70;43.80;;;10.15;35.57;100963.09;5026137;28;20072;-74
2023/04/20 00:49:34;;;;;;;8.55;3.90;;;10.80;44.50;;;10.12;35.44;100961.66;5022137;28;20125;-72
2023/04/20 00:52:01;;;;;;;8.50;3.60;;;10.70;44.20;;;10.08;34.86;100957.75;5026490;28;20073;-73
2023/04/20 00:54:31;;;;;;;8.07;3.70;;;10.70;43.40;;;10.07;35.28;100954.25;5024825;28;20044;-72
2023/04/20 00:57:01;;;;;;;9.27;3.60;;;10.70;44.10;;;10.08;35.11;100949.75;5041631;28;20229;-75
2023/04/20 00:59:28;;;;;;;5.95;3.35;;;10.70;43.70;;;10.07;34.96;100934.78;5025617;28;20053;-72
2023/04/20 01:01:57;;;;;;;6.63;3.72;;;10.80;43.70;;;10.05;35.44;100934.16;5030378;28;20405;-71
2023/04/20 01:04:26;;;;;;;8.38;3.63;;;10.70;44.30;;;10.00;34.91;100936.56;5029639;28;20073;-70
2023/04/20 01:06:54;;;;;;;6.88;3.95;;;10.60;43.50;;;9.98;35.62;100931.44;5028601;28;20497;-72
2023/04/20 01:09:22;;;;;;;10.65;3.72;;;10.60;44.50;;;9.91;35.04;100933.25;5019726;28;20043;-73
2023/04/20 01:11:49;;;;;;;15.20;4.15;;;10.50;43.60;;;9.91;34.89;100911.13;5024078;28;20103;-71
2023/04/20 01:14:18;;;;;;;9.32;3.47;;;10.50;43.30;;;9.90;34.97;100920.13;5029672;28;20038;-71
2023/04/20 01:16:46;;;;;;;7.70;3.42;;;10.50;43.80;;;9.84;34.63;100912.91;5026094;28;20571;-74
2023/04/20 01:19:13;;;;;;;9.82;3.90;;;10.40;43.30;;;9.81;35.18;100908.81;5038934;28;20041;-73
2023/04/20 01:21:41;;;;;;;8.95;3.50;;;10.40;43.90;;;9.80;35.46;100918.63;5028484;28;20049;-73
2023/04/20 01:24:10;;;;;;;5.97;3.35;;;10.40;44.30;;;9.74;35.17;100914.06;5029265;28;20049;-72
2023/04/20 01:26:37;;;;;;;9.10;3.70;;;10.30;44.00;;;9.73;35.16;100904.44;5029119;28;20135;-72
2023/04/20 01:29:07;;;;;;;10.23;3.88;;;10.40;44.00;;;9.73;35.26;100907.13;5022689;28;20088;-72
2023/04/20 01:31:34;;;;;;;7.97;3.13;;;10.30;43.80;;;9.73;35.69;100903.63;5025222;28;20157;-73
2023/04/20 01:34:02;;;;;;;7.10;3.53;;;10.30;44.70;;;9.69;35.81;100903.19;5040725;28;20128;-71
2023/04/20 01:36:29;;;;;;;8.30;3.50;;;10.30;44.70;;;9.71;35.78;100903.84;5033679;28;20131;-72
2023/04/20 01:38:56;;;;;;;6.18;3.65;;;10.30;44.70;;;9.68;35.67;100893.56;5026753;28;20498;-71
2023/04/20 01:41:25;;;;;;;6.10;3.70;;;10.20;44.50;;;9.68;36.32;100887.41;5015427;28;20041;-72
2023/04/20 01:43:53;;;;;;;7.75;3.45;;;10.30;45.70;;;9.63;36.88;100880.00;5027111;28;20136;-72
2023/04/20 01:46:20;;;;;;;9.02;3.35;;;10.20;46.20;;;9.63;37.40;100866.69;5029549;28;20086;-74
2023/04/20 01:48:47;;;;;;;8.43;3.60;;;10.20;46.80;;;9.59;35.88;100873.41;5028708;28;20049;-72
2023/04/20 01:51:15;;;;;;;6.65;3.30;;;10.20;45.10;;;9.53;36.23;100874.19;5017201;28;20127;-73
2023/04/20 01:53:42;;;;;;;6.05;3.45;;;10.10;45.40;;;9.56;36.03;100857.81;5028374;28;20048;-72
2023/04/20 01:56:09;;;;;;;8.93;3.58;;;10.10;45.40;;;9.60;36.85;100858.25;5028947;28;20049;-72
2023/04/20 01:58:38;;;;;;;8.30;3.70;;;10.20;46.20;;;9.61;36.49;100855.38;5033104;28;20520;-72
2023/04/20 02:01:05;;;;;;;8.13;3.47;;;10.20;45.70;;;9.61;36.46;100854.56;5024881;28;20656;-72
2023/04/20 02:03:33;;;;;;;8.52;4.00;;;10.20;45.40;;;9.56;36.30;100849.84;5047964;28;20061;-73
2023/04/20 02:06:01;;;;;;;12.98;4.05;;;10.10;45.70;;;9.58;37.01;100847.81;5027574;28;20041;-72
2023/04/20 02:08:30;;;;;;;7.72;3.38;;;10.10;46.60;;;9.58;37.09;100847.81;5025585;28;20056;-72
2023/04/20 02:10:57;;;;;;;9.88;3.70;;;10.20;46.80;;;9.55;36.92;100829.56;5027057;28;20046;-75
2023/04/20 02:13:24;;;;;;;6.88;3.40;;;10.10;46.40;;;9.58;37.28;100831.84;5026106;28;20693;-73
2023/04/20 02:15:53;;;;;;;10.45;3.22;;;10.20;46.90;;;9.60;36.93;100826.31;5043485;28;20494;-73
2023/04/20 02:18:23;;;;;;;9.38;3.25;;;10.20;46.60;;;9.62;37.81;100835.75;5027627;28;20044;-73
2023/04/20 02:20:51;;;;;;;8.50;3.70;;;10.20;47.40;;;9.61;37.45;100828.75;5027775;28;20033;-73
2023/04/20 02:23:18;;;;;;;7.18;3.55;;;10.20;47.20;;;9.64;37.85;100827.56;5029091;28;20440;-74
2023/04/20 02:25:45;;;;;;;8.07;3.47;;;10.20;47.50;;;9.60;37.51;100831.63;5026487;28;20135;-73
2023/04/20 02:28:12;;;;;;;8.80;3.42;;;10.20;47.10;;;9.61;37.63;100833.28;5026978;28;20498;-73
2023/04/20 02:30:40;;;;;;;10.07;3.17;;;10.20;47.30;;;9.63;37.93;100818.75;5023294;28;20057;-72
2023/04/20 02:33:08;;;;;;;13.30;3.33;;;10.20;47.70;;;9.61;37.86;100812.78;5023888;28;20391;-72
2023/04/20 02:35:35;;;;;;;10.57;3.47;;;10.20;47.50;;;9.63;38.41;100813.44;5039494;28;20072;-72
2023/04/20 02:38:03;;;;;;;10.07;3.38;;;10.20;48.30;;;9.61;38.58;100822.63;5026861;28;20041;-73
2023/04/20 02:40:30;;;;;;;6.63;3.72;;;10.40;48.40;;;9.62;38.42;100818.97;5023616;28;20041;-72
2023/04/20 02:42:58;;;;;;;7.35;3.47;;;10.20;48.10;;;9.63;38.76;100810.75;5023764;28;20411;-72
2023/04/20 02:45:26;;;;;;;9.68;3.70;;;10.30;48.80;;;9.58;39.02;100807.88;5023579;28;20583;-72
2023/04/20 02:47:53;;;;;;;8.00;3.40;;;10.20;48.80;;;9.60;39.28;100816.47;5022210;28;20061;-72
2023/04/20 02:50:22;;;;;;;8.77;3.60;;;10.20;49.60;;;9.63;40.03;100804.63;5022711;28;20065;-73
2023/04/20 02:53:01;;;;;;;9.50;3.90;;;10.20;50.30;;;9.64;39.64;100809.75;5036766;28;20041;-72
2023/04/20 02:55:30;;;;;;;6.45;3.30;;;10.20;49.90;;;9.65;39.85;100814.03;5022151;28;20513;-71
2023/04/20 02:58:01;;;;;;;8.43;3.90;;;10.20;50.20;;;9.65;40.08;100797.25;5016124;28;20572;-72
2023/04/20 03:00:47;;;;;;;9.25;3.38;;;10.20;50.30;;;9.64;40.45;100807.09;5027149;28;20115;-72
2023/04/20 03:03:14;;;;;;;7.28;3.40;;;10.20;50.90;;;9.65;40.85;100803.41;5018281;28;20132;-75
2023/04/20 03:05:44;;;;;;;11.77;3.80;;;10.20;51.40;;;9.63;41.09;100808.09;5026358;28;20055;-74
2023/04/20 03:08:11;;;;;;;11.40;4.03;;;10.40;51.70;;;9.62;41.52;100800.31;5027727;28;20041;-73
2023/04/20 03:10:39;;;;;;;10.75;3.78;;;10.20;52.00;;;9.63;41.78;100792.13;5042886;28;20045;-74
2023/04/20 03:13:15;;;;;;;9.65;4.13;;;10.20;52.40;;;9.60;41.43;100800.50;5024810;28;20526;-74
2023/04/20 03:16:02;;;;;;;8.15;3.78;;;10.20;52.20;;;9.61;41.62;100788.00;5021543;28;20502;-73
2023/04/20 03:18:36;;;;;;;6.68;3.70;;;10.20;52.30;;;9.60;41.74;100787.19;5018379;28;20049;-74
2023/04/20 03:21:06;;;;;;;6.88;3.90;;;10.20;52.30;;;9.61;41.79;100785.34;5025769;28;20064;-72
2023/04/20 03:23:34;;;;;;;7.85;3.83;;;10.20;52.50;;;9.58;41.91;100786.56;5048476;28;20041;-72
2023/04/20 03:26:03;;;;;;;10.55;4.22;;;10.20;52.50;;;9.57;41.97;100779.59;5041820;28;20068;-71
2023/04/20 03:28:39;;;;;;;8.00;4.05;;;10.20;52.70;;;9.57;42.25;100766.28;5015420;28;20041;-72
2023/04/20 03:31:06;;;;;;;11.77;3.90;;;10.20;52.90;;;9.61;42.35;100772.84;5018059;28;20573;-72
2023/04/20 03:33:34;;;;;;;7.10;3.85;;;10.20;52.10;;;9.63;42.99;100770.00;5025268;28;20045;-73
2023/04/20 03:36:03;;;;;;;8.35;3.92;;;10.20;52.90;;;9.64;43.42;100771.63;5025496;28;20145;-72
2023/04/20 03:38:32;;;;;;;8.32;4.10;;;10.20;53.50;;;9.67;43.53;100772.06;5027995;28;20433;-72
2023/04/20 03:40:59;;;;;;;10.52;3.90;;;10.30;53.80;;;9.68;43.64;100765.72;5026547;28;20041;-72
2023/04/20 03:43:27;;;;;;;8.50;3.97;;;10.30;53.80;;;9.69;44.40;100778.00;5026214;28;20081;-73
2023/04/20 03:45:56;;;;;;;8.55;4.38;;;10.30;55.00;;;9.68;44.33;100760.41;5025620;28;20053;-74
2023/04/20 03:48:23;;;;;;;9.30;4.22;;;10.30;55.00;;;9.68;44.51;100770.22;5024817;28;20045;-74
2023/04/20 03:50:50;;;;;;;9.57;4.55;;;10.30;55.20;;;9.66;44.98;100759.78;5026656;28;20138;-72
2023/04/20 03:53:17;;;;;;;10.70;4.72;;;10.30;55.70;;;9.63;45.54;100762.84;5018116;28;20128;-72
2023/04/20 03:55:46;;;;;;;9.93;4.75;;;10.20;56.60;;;9.59;45.70;100766.09;5025899;28;20076;-72
2023/04/20 03:58:17;;;;;;;12.07;4.75;;;10.20;56.70;;;9.54;46.38;100751.53;5024166;28;20489;-74
2023/04/20 04:01:14;;;;;;;10.13;4.60;;;10.20;57.50;;;9.44;47.21;100764.38;5007760;28;20079;-71
2023/04/20 04:03:46;;;;;;;9.38;4.65;;;10.10;58.60;;;9.35;47.56;100762.88;5022740;28;20593;-71
2023/04/20 04:06:13;;;;;;;8.52;4.80;;;10.00;58.90;;;9.34;47.92;100763.09;5025999;28;20563;-72
2023/04/20 04:08:41;;;;;;;7.95;4.82;;;10.00;60.00;;;9.32;48.21;100749.13;5018410;28;20139;-74
2023/04/20 04:11:10;;;;;;;9.63;4.55;;;10.00;60.20;;;9.36;48.28;100755.72;5025270;28;20054;-74
2023/04/20 04:13:37;;;;;;;9.95;4.78;;;10.00;60.40;;;9.32;48.53;100752.66;5026312;28;20048;-71
2023/04/20 04:16:07;;;;;;;9.63;5.05;;;9.90;60.80;;;9.29;48.37;100756.50;5019770;28;20061;-75
2023/04/20 04:18:35;;;;;;;11.30;4.75;;;9.90;60.50;;;9.32;48.85;100750.00;5039838;28;20049;-73
2023/04/20 04:21:09;;;;;;;10.15;4.82;;;9.90;61.20;;;9.32;48.69;100752.66;5026568;28;20054;-72
2023/04/20 04:23:37;;;;;;;10.23;4.65;;;9.90;60.90;;;9.33;48.82;100751.63;5021784;28;20507;-73
2023/04/20 04:26:23;;;;;;;12.85;4.88;;;9.90;61.40;;;9.32;49.00;100751.78;5025718;28;20428;-72
2023/04/20 04:28:52;;;;;;;8.25;4.40;;;9.90;61.60;;;9.22;49.06;100744.16;5022333;28;20081;-74
2023/04/20 04:31:22;;;;;;;9.73;4.55;;;9.80;62.00;;;9.19;49.71;100756.03;5024070;28;20516;-77
2023/04/20 04:33:50;;;;;;;10.32;4.07;;;9.90;62.60;;;9.22;49.25;100742.34;5022066;28;20046;-76
2023/04/20 04:36:31;;;;;;;;;;;9.80;62.00;;;9.19;49.41;100750.72;5024839;28;20065;-78
2023/04/20 04:38:59;;;;;;;9.27;4.68;;;9.80;62.40;;;9.12;50.03;100733.88;5029046;28;19981;-76
2023/04/20 04:41:28;;;;;;;8.32;4.05;;;9.80;62.60;;;9.10;50.01;100735.09;5025465;28;20057;-77
2023/04/20 04:44:05;;;;;;;9.93;4.20;;;9.70;62.60;;;9.13;49.94;100735.53;5027660;28;20141;-76
2023/04/20 04:46:33;;;;;;;11.43;4.68;;;9.80;63.10;;;9.16;49.89;100740.44;5042461;28;20054;-76
2023/04/20 04:49:01;;;;;;;7.93;4.70;;;9.80;62.80;;;9.23;50.10;100733.34;5031370;28;20057;-77
2023/04/20 04:51:28;;;;;;;7.72;4.40;;;9.80;63.20;;;9.24;49.86;100747.47;5022202;28;20044;-77
2023/04/20 04:53:56;;;;;;;8.40;4.53;;;9.80;63.00;;;9.22;49.85;100736.19;5025827;28;20077;-77
2023/04/20 04:56:23;;;;;;;12.50;4.70;;;9.80;63.00;;;9.24;50.10;100742.16;5029462;28;20314;-77
2023/04/20 04:58:52;;;;;;;9.52;4.50;;;9.80;63.20;;;9.20;49.99;100740.88;5030939;28;20501;-76
2023/04/20 05:01:19;;;;;;;9.65;4.97;;;9.80;63.20;;;9.15;50.19;100735.34;5028775;28;20076;-77
2023/04/20 05:03:47;;;;;;;8.63;4.40;;;9.70;63.10;;;9.10;50.31;100741.22;5027513;28;20124;-77
2023/04/20 05:06:14;;;;;;;10.05;4.70;;;9.70;63.30;;;9.09;50.39;100734.28;5026278;28;20041;-74
2023/04/20 05:08:41;;;;;;;12.98;4.60;;;9.80;63.40;;;9.12;50.25;100739.19;5029968;28;20049;-73
2023/04/20 05:11:09;;;;;;;9.82;4.80;;;9.70;63.50;;;9.09;50.42;100744.09;5021052;28;20077;-72
2023/04/20 05:13:36;;;;;;;9.00;5.03;;;9.80;63.80;;;9.03;50.61;100745.72;5020077;28;20045;-72
2023/04/20 05:16:05;;;;;;;7.28;4.97;;;9.70;63.80;;;9.07;50.92;100740.78;5026524;28;20080;-74
2023/04/20 05:18:32;;;;;;;8.43;4.90;;;9.70;64.00;;;9.09;50.46;100736.94;5028980;28;20099;-75
2023/04/20 05:21:00;;;;;;;7.30;4.55;;;9.80;63.50;;;9.11;50.50;100740.22;5025558;28;20042;-73
2023/04/20 05:23:27;;;;;;;9.70;4.47;;;9.70;63.70;;;9.09;50.67;100744.91;5029926;28;20053;-74
2023/04/20 05:25:54;;;;;;;13.07;5.75;;;9.70;63.80;;;9.01;50.73;100743.22;5027738;28;20033;-74
2023/04/20 05:28:21;;;;;;;11.05;5.40;;;9.70;64.10;;;9.00;50.81;100748.75;5026529;28;20053;-76
2023/04/20 05:30:48;;;;;;;8.32;5.00;;;9.70;64.20;;;9.04;50.74;100747.34;5029763;28;20416;-75
2023/04/20 05:33:17;;;;;;;8.48;5.13;;;9.70;64.20;;;9.07;50.79;100746.13;5029661;28;20131;-74
2023/04/20 05:35:44;;;;;;;9.23;4.90;;;9.70;64.10;;;9.12;50.24;100752.50;5030256;28;20133;-74
2023/04/20 05:38:12;;;;;;;6.88;4.80;;;9.80;64.00;;;9.15;50.22;100749.44;5027794;28;20041;-72
2023/04/20 05:40:39;;;;;;;7.85;5.15;;;9.80;63.60;;;9.20;50.47;100751.53;5029017;28;20041;-74
2023/04/20 05:43:06;;;;;;;14.30;5.32;;;9.80;63.90;;;9.22;50.37;100753.00;5027627;28;20051;-75
2023/04/20 05:45:34;;;;;;;11.68;4.85;;;9.80;63.80;;;9.19;50.36;100752.56;5024952;28;20714;-75
2023/04/20 05:48:01;;;;;;;12.68;4.97;;;9.80;63.70;;;9.15;50.58;100749.44;5029743;28;20054;-73
2023/04/20 05:50:30;;;;;;;8.60;4.65;;;9.80;63.80;;;9.13;50.79;100742.69;5037520;28;20041;-73
2023/04/20 05:52:57;;;;;;;10.93;4.85;;;9.80;64.10;;;9.13;50.80;100740.84;5029070;28;20045;-73
2023/04/20 05:55:25;;;;;;;7.68;4.68;;;9.80;64.20;;;9.15;50.58;100746.78;5029216;28;20449;-74
2023/04/20 05:57:53;;;;;;;11.88;4.93;;;9.80;64.10;;;9.19;50.65;100745.38;5026018;28;20124;-74
2023/04/20 06:00:22;;;;;;;12.55;5.00;;;9.80;64.30;;;9.20;50.57;100744.38;5028284;28;20480;-74
2023/04/20 06:02:49;;;;;;;10.15;4.90;;;9.80;64.20;;;9.22;50.94;100750.34;5028900;28;20049;-75
2023/04/20 06:05:17;;;;;;;14.48;5.32;;;9.80;64.60;;;9.23;51.47;100744.00;5029075;28;20120;-73
2023/04/20 06:07:45;;;;;;;9.75;5.25;;;9.90;65.00;;;9.23;51.62;100759.13;5028687;28;20051;-73
2023/04/20 06:10:13;;;;;;;11.18;5.47;;;9.80;65.40;;;9.11;51.97;100756.19;5030697;28;20049;-73
2023/04/20 06:12:40;;;;;;;13.70;5.53;;;9.80;65.60;;;8.96;52.73;100769.59;5029423;28;20165;-76
2023/04/20 06:15:09;;;;;;;8.05;5.07;;;9.60;66.50;;;8.93;53.28;100763.81;5027777;28;20041;-73
2023/04/20 06:17:39;;;;;;;11.07;5.47;;;9.60;67.00;;;8.93;53.54;100762.00;5024603;28;20054;-73
2023/04/20 06:20:08;;;;;;;10.52;5.20;;;9.60;67.70;;;8.93;54.12;100761.16;5025304;28;20055;-75
2023/04/20 06:22:36;;;;;;;9.80;5.82;;;9.50;68.30;;;8.91;54.49;100752.56;5020083;28;20056;-74
2023/04/20 06:25:06;;;;;;;10.40;6.28;;;9.50;68.50;;;8.92;54.33;100759.50;5030126;28;20486;-73
2023/04/20 06:27:33;;;;;;;8.80;5.20;;;9.60;68.60;;;8.93;54.38;100756.69;5028829;28;20049;-74
2023/04/20 06:30:00;;;;;;;10.63;5.70;;;9.60;68.60;;;8.96;55.06;100750.97;5027523;28;20457;-76
2023/04/20 06:32:27;;;;;;;9.85;6.03;;;9.60;69.40;;;8.95;55.25;100759.16;5024695;28;20042;-75
2023/04/20 06:34:55;;;;;;;11.27;6.03;;;9.60;69.70;;;8.88;55.59;100758.25;5028200;28;20559;-74
2023/04/20 06:37:22;;;;;;;8.68;5.60;;;9.50;69.90;;;8.85;55.79;100761.31;5029047;28;20037;-74
2023/04/20 06:39:53;;;;;;;10.98;6.57;;;9.50;70.30;;;8.84;56.08;100754.34;5028152;28;20046;-75
2023/04/20 06:42:21;;;;;;;10.88;6.38;;;9.50;70.90;;;8.81;56.21;100768.03;5028222;28;20073;-74
2023/04/20 06:44:49;;;;;;;8.27;5.75;;;9.40;70.80;;;8.75;56.68;100773.09;5037074;28;20057;-73
2023/04/20 06:47:17;;;;;;;13.30;5.30;;;9.40;71.30;;;8.64;56.89;100763.00;5021380;28;20219;-74
2023/04/20 06:49:44;;;;;;;11.80;5.97;;;9.30;71.50;;;8.70;57.16;100764.88;5022369;28;20072;-73
2023/04/20 06:52:11;;;;;;;8.07;5.82;;;9.30;71.90;;;8.69;57.28;100759.75;5025911;28;20120;-74
2023/04/20 06:54:38;;;;;;;9.95;6.07;;;9.30;72.30;;;8.60;57.77;100767.03;5025402;28;20077;-77
2023/04/20 06:57:05;;;;;;;10.32;6.30;;;9.20;72.60;;;8.59;57.12;100759.22;5023746;28;20038;-74
2023/04/20 06:59:34;;;;;;;9.95;6.40;;;9.20;72.10;;;8.64;57.44;100773.63;5024254;28;20049;-74
2023/04/20 07:02:01;;;;;;;12.63;6.90;;;9.20;72.70;;;8.62;58.09;100758.88;5023667;28;20103;-74
2023/04/20 07:04:28;;;;;;;13.23;7.28;;;9.20;73.30;;;8.57;58.05;100756.78;5019570;28;20072;-76
2023/04/20 07:06:56;;;;;;;12.15;6.28;;;9.20;73.40;;;8.64;57.94;100756.84;5025941;28;20045;-74
2023/04/20 07:09:23;;;;;;;12.48;6.90;;;9.20;73.40;;;8.64;58.29;100749.69;5026734;28;20073;-75
2023/04/20 07:11:50;;;;;;;10.90;6.35;;;9.20;73.80;;;8.65;58.04;100748.69;5017884;28;20045;-73
2023/04/20 07:14:18;;;;;;;10.70;6.60;;;9.20;73.50;;;8.69;58.34;100754.44;5020673;28;20557;-73
2023/04/20 07:16:46;;;;;;;11.38;6.90;;;9.20;73.70;;;8.66;58.04;100752.16;5014236;28;20104;-77
2023/04/20 07:19:13;;;;;;;11.27;7.13;;;9.20;73.40;;;8.69;58.17;100751.78;5025767;28;20079;-74
2023/04/20 07:21:41;;;;;;;10.48;6.75;;;9.30;73.80;;;8.71;58.13;100744.44;5019203;28;20080;-75
2023/04/20 07:24:08;;;;;;;12.10;7.28;;;9.30;73.90;;;8.70;58.50;100753.41;5021030;28;20132;-75
2023/04/20 07:26:35;;;;;;;13.35;7.75;;;9.30;74.10;;;8.71;58.47;100758.53;5026128;28;20125;-74
2023/04/20 07:29:02;;;;;;;15.90;8.07;;;9.30;74.20;;;8.67;58.49;100746.63;5022041;28;20048;-75
2023/04/20 07:31:30;;;;;;;12.35;6.78;;;9.30;74.00;;;8.62;58.75;100754.38;5022321;28;20151;-72
2023/04/20 07:33:59;;;;;;;11.25;7.60;;;9.20;74.10;;;8.49;59.03;100749.78;5016934;28;20045;-74
2023/04/20 07:36:26;;;;;;;12.95;7.95;;;9.20;74.50;;;8.52;59.15;100738.75;5019546;28;20493;-73
2023/04/20 07:38:53;;;;;;;16.83;8.98;;;9.20;74.60;;;8.49;58.85;100752.44;5019665;28;20045;-74
2023/04/20 07:41:21;;;;;;;15.25;8.25;;;9.10;74.50;;;8.48;58.81;100764.06;5022903;28;20046;-74
2023/04/20 07:43:49;;;;;;;15.00;8.55;;;9.10;74.40;;;8.51;58.89;100755.72;5018239;28;20048;-74
2023/04/20 07:46:21;;;;;;;14.60;8.10;;;9.20;74.50;;;8.53;58.67;100744.88;5024785;28;20029;-73
2023/04/20 07:48:48;;;;;;;13.27;8.48;;;9.20;74.30;;;8.62;58.28;100746.38;5018878;28;20464;-73
2023/04/20 07:51:17;;;;;;;15.52;8.20;;;9.20;74.30;;;8.62;58.42;100754.38;5014647;28;20128;-75
2023/04/20 07:53:44;;;;;;;11.10;7.00;;;9.20;74.10;;;8.57;58.38;100748.81;5020009;28;20103;-74
2023/04/20 07:56:11;;;;;;;11.48;7.60;;;9.20;74.10;;;8.59;58.25;100746.78;5020312;28;20092;-74
2023/04/20 07:58:39;;;;;;;12.35;8.05;;;9.20;73.90;;;8.63;58.15;100744.56;5019411;28;20046;-74
2023/04/20 08:01:07;;;;;;;18.23;8.10;;;9.20;74.10;;;8.61;58.23;100738.63;5018595;28;20128;-74
2023/04/20 08:03:34;;;;;;;14.80;7.95;;;9.20;73.70;;;8.60;57.95;100735.13;5020974;28;20050;-74
2023/04/20 08:06:02;;;;;;;14.48;8.50;;;9.20;73.80;;;8.66;57.99;100731.72;5014269;28;20037;-73
2023/04/20 08:08:30;;;;;;;12.57;7.75;;;9.30;73.90;;;8.66;57.93;100738.88;5014599;28;20046;-72
2023/04/20 08:10:58;;;;;;;12.10;7.80;;;9.30;73.70;;;8.65;57.89;100738.03;5006795;28;20046;-74
2023/04/20 08:13:26;;;;;;;12.40;7.65;;;9.30;73.70;;;8.68;58.16;100732.31;5009093;28;20119;-75
2023/04/20 08:15:53;;;;;;;12.05;7.85;;;9.30;73.70;;;8.67;57.83;100724.53;5014377;28;20042;-75
2023/04/20 08:18:20;;;;;;;12.48;7.35;;;9.30;73.60;;;8.68;58.02;100734.97;5024143;28;20050;-75
2023/04/20 08:20:49;;;;;;;11.98;7.35;;;9.30;73.60;;;8.58;58.05;100731.00;5013445;28;20052;-73
2023/04/20 08:23:17;;;;;;;14.57;7.80;;;9.30;73.70;;;8.57;58.40;100724.88;5023096;28;20057;-73
2023/04/20 08:25:45;;;;;;;16.23;8.20;;;9.30;74.00;;;8.63;58.51;100724.09;5024324;28;20128;-73
2023/04/20 08:28:12;;;;;;;12.63;7.10;;;9.30;74.20;;;8.67;57.98;100717.38;5022107;28;20041;-73
2023/04/20 08:30:41;;;;;;;9.50;6.63;;;9.30;73.90;;;8.71;57.78;100713.34;5021778;28;20060;-73
2023/04/20 08:33:08;;;;;;;10.18;6.78;;;9.30;73.60;;;8.70;57.51;100724.19;5020319;28;20061;-75
2023/04/20 08:35:35;;;;;;;13.75;7.63;;;9.40;73.30;;;8.66;57.37;100718.41;5022276;28;20106;-74
2023/04/20 08:38:02;;;;;;;12.02;7.10;;;9.30;73.10;;;8.63;57.16;100708.16;5023401;28;20049;-75
2023/04/20 08:40:30;;;;;;;12.35;7.40;;;9.30;72.90;;;8.64;57.93;100709.81;5021492;28;20042;-73
2023/04/20 08:42:59;;;;;;;13.52;7.45;;;9.30;73.20;;;8.65;57.20;100706.13;5019052;28;20401;-74
2023/04/20 08:45:27;;;;;;;11.70;7.45;;;9.30;72.70;;;8.68;57.44;100710.22;5022530;28;20509;-74
2023/04/20 08:47:54;;;;;;;12.05;7.63;;;9.30;73.00;;;8.66;57.57;100709.63;5025144;28;20072;-73
2023/04/20 08:50:21;;;;;;;13.40;7.70;;;9.30;73.10;;;8.65;57.65;100706.13;5026571;28;20124;-75
2023/04/20 08:52:49;;;;;;;11.48;7.82;;;9.30;73.30;;;8.61;57.37;100704.06;5024961;28;20505;-73
2023/04/20 08:55:19;;;;;;;14.10;8.20;;;9.30;73.20;;;8.65;58.17;100708.78;5018158;28;20494;-73
2023/04/20 08:57:49;;;;;;;12.93;7.93;;;9.30;73.90;;;8.69;58.42;100707.41;5011722;28;20569;-76
2023/04/20 09:00:18;;;;;;;11.48;7.75;;;9.30;74.30;;;8.73;58.46;100708.63;5025370;28;20152;-75
2023/04/20 09:02:51;;;;;;;13.77;8.27;;;9.40;74.30;;;8.84;58.70;100715.28;5027821;28;20053;-74
2023/04/20 09:05:26;;;;;;;13.95;8.63;;;9.50;74.60;;;8.85;58.38;100705.47;5027745;28;20057;-73
2023/04/20 09:07:55;;;;;;;11.63;8.18;;;9.50;74.50;;;8.89;58.24;100725.34;5027484;28;20061;-75
2023/04/20 09:10:24;;;;;;;11.82;7.60;;;9.50;74.10;;;8.89;58.25;100717.38;5020496;28;20044;-74
2023/04/20 09:12:51;;;;;;;11.77;6.95;;;9.50;74.00;;;8.88;57.38;100713.03;5027558;28;20046;-73
2023/04/20 09:15:28;;;;;;;11.43;7.38;;;9.50;73.10;;;8.94;58.00;100715.75;5023078;28;20053;-73
2023/04/20 09:17:56;;;;;;;9.80;6.05;;;9.60;73.70;;;8.99;57.52;100715.19;5022649;28;20128;-74
2023/04/20 09:20:31;;;;;;;9.73;6.10;;;9.60;73.30;;;9.03;57.33;100711.94;5029669;28;20038;-73
2023/04/20 09:23:10;;;;;;;10.80;7.00;;;9.60;73.00;;;9.10;57.42;100706.66;5029367;28;20046;-74
2023/04/20 09:25:39;;;;;;;9.50;6.15;;;9.70;73.30;;;9.13;57.73;100711.59;5027167;28;20048;-74
2023/04/20 09:28:07;;;;;;;9.55;6.35;;;9.70;73.40;;;9.18;57.52;100703.84;5031056;28;20114;-74
2023/04/20 09:30:41;;;;;;;10.88;6.63;;;9.80;73.10;;;9.27;57.41;100705.31;5013255;28;20128;-74
2023/04/20 09:33:10;;;;;;;9.85;7.32;;;9.90;73.10;;;9.34;57.43;100705.34;5028102;28;20041;-75
2023/04/20 09:35:39;;;;;;;10.38;7.45;;;10.00;73.10;;;9.33;56.86;100702.91;5030665;28;20044;-74
2023/04/20 09:38:06;;;;;;;12.95;6.97;;;10.00;72.30;;;9.29;56.62;100708.59;5030786;28;20049;-73
2023/04/20 09:40:35;;;;;;;10.05;7.03;;;9.90;72.30;;;9.28;56.85;100714.13;5028039;28;20041;-74
2023/04/20 09:43:08;;;;;;;10.02;7.03;;;9.90;72.30;;;9.31;56.91;100704.91;5034851;28;20044;-73
2023/04/20 09:45:38;;;;;;;11.77;7.70;;;10.00;72.60;;;9.32;56.81;100704.75;5024161;28;20123;-72
2023/04/20 09:48:09;;;;;;;10.18;7.55;;;9.90;72.50;;;9.32;57.09;100722.53;5026499;28;20049;-73
2023/04/20 09:50:37;;;;;;;11.07;8.02;;;10.00;72.60;;;9.28;57.53;100706.97;5029938;28;20073;-74
2023/04/20 09:53:05;;;;;;;12.70;8.95;;;9.90;73.20;;;9.30;58.02;100712.06;5027430;28;20037;-75
2023/04/20 09:55:33;;;;;;;13.27;8.05;;;9.90;73.70;;;9.31;58.25;100703.06;5029802;28;20263;-73
2023/04/20 09:58:04;;;;;;;11.32;8.30;;;10.00;73.70;;;9.35;58.64;100703.50;5025046;28;20045;-75
2023/04/20 10:00:31;;;;;;;;;;;10.00;74.10;;;9.42;58.73;100691.03;5024669;28;20133;-73
2023/04/20 10:03:00;;;;;;;12.73;7.70;;;10.10;74.70;;;9.55;58.15;100701.75;5030551;28;19925;-75
2023/04/20 10:05:35;;;;;;;16.00;8.13;;;10.20;74.10;;;9.57;58.09;100699.72;5030148;28;20077;-75
2023/04/20 10:08:03;;;;;;;11.88;7.18;;;10.20;73.90;;;9.57;57.49;100697.06;5030580;28;20077;-74
2023/04/20 10:10:30;;;;;;;13.48;7.43;;;10.20;73.10;;;9.63;57.88;100698.91;5029848;28;20052;-74
2023/04/20 10:13:00;;;;;;;8.70;5.97;;;10.30;73.60;;;9.62;57.02;100701.78;5032494;28;20112;-74
2023/04/20 10:15:38;;;;;;;9.10;6.50;;;10.30;72.60;;;9.64;57.03;100689.09;5017739;28;20160;-74
2023/04/20 10:18:22;;;;;;;10.40;7.28;;;10.30;72.70;;;9.69;57.33;100686.66;5029422;28;20136;-74
2023/04/20 10:20:50;;;;;;;12.18;7.97;;;10.30;73.10;;;9.69;57.36;100708.78;5039564;28;20169;-73
2023/04/20 10:23:18;;;;;;;11.05;7.60;;;10.40;73.20;;;9.67;57.71;100692.19;5071533;22;20060;-77